sensor_id;sensor_type;location;lat;lon;timestamp;P1;durP1;ratioP1;P2;durP2;ratioP2
69744;SDS011;57015;50.120;-5.168;2023-10-31T00:02:07;3.15;;;0.30;;
69744;SDS011;57015;50.120;-5.168;2023-10-31T00:04:33;3.70;;;1.00;;
69744;SDS011;57015;50.120;-5.168;2023-10-31T00:06:58;4.83;;;0.50;;
69744;SDS011;57015;50.120;-5.168;2023-10-31T00:09:25;7.22;;;0.52;;
69744;SDS011;57015;50.120;-5.168;2023-10-31T00:11:50;2.93;;;0.50;;
69744;SDS011;57015;50.120;-5.168;2023-10-31T00:14:16;2.83;;;0.70;;
69744;SDS011;57015;50.120;-5.168;2023-10-31T00:16:41;6.25;;;0.60;;
69744;SDS011;57015;50.120;-5.168;2023-10-31T00:19:06;4.23;;;0.30;;
69744;SDS011;57015;50.120;-5.168;2023-10-31T00:21:32;4.37;;;0.50;;
69744;SDS011;57015;50.120;-5.168;2023-10-31T00:23:57;2.17;;;0.43;;
69744;SDS011;57015;50.120;-5.168;2023-10-31T00:26:23;2.37;;;0.40;;
69744;SDS011;57015;50.120;-5.168;2023-10-31T00:28:48;1.80;;;0.30;;
69744;SDS011;57015;50.120;-5.168;2023-10-31T00:31:13;5.25;;;0.65;;
69744;SDS011;57015;50.120;-5.168;2023-10-31T00:33:39;2.40;;;0.37;;
69744;SDS011;57015;50.120;-5.168;2023-10-31T00:36:04;3.67;;;0.43;;
69744;SDS011;57015;50.120;-5.168;2023-10-31T00:38:31;5.05;;;0.60;;
69744;SDS011;57015;50.120;-5.168;2023-10-31T00:40:56;4.57;;;0.57;;
69744;SDS011;57015;50.120;-5.168;2023-10-31T00:43:21;4.57;;;0.67;;
69744;SDS011;57015;50.120;-5.168;2023-10-31T00:45:47;5.25;;;0.50;;
69744;SDS011;57015;50.120;-5.168;2023-10-31T00:48:12;4.20;;;0.50;;
69744;SDS011;57015;50.120;-5.168;2023-10-31T00:50:38;4.87;;;0.40;;
69744;SDS011;57015;50.120;-5.168;2023-10-31T00:53:03;7.17;;;0.80;;
69744;SDS011;57015;50.120;-5.168;2023-10-31T00:55:29;3.67;;;0.60;;
69744;SDS011;57015;50.120;-5.168;2023-10-31T00:57:54;7.00;;;0.50;;
69744;SDS011;57015;50.120;-5.168;2023-10-31T01:00:19;4.78;;;0.50;;
69744;SDS011;57015;50.120;-5.168;2023-10-31T01:02:45;3.07;;;0.40;;
69744;SDS011;57015;50.120;-5.168;2023-10-31T01:05:10;3.13;;;0.30;;
69744;SDS011;57015;50.120;-5.168;2023-10-31T01:07:36;4.40;;;0.40;;
69744;SDS011;57015;50.120;-5.168;2023-10-31T01:10:02;3.20;;;0.60;;
69744;SDS011;57015;50.120;-5.168;2023-10-31T01:12:28;3.40;;;0.50;;
69744;SDS011;57015;50.120;-5.168;2023-10-31T01:14:54;4.57;;;0.40;;
69744;SDS011;57015;50.120;-5.168;2023-10-31T01:17:20;5.53;;;1.30;;
69744;SDS011;57015;50.120;-5.168;2023-10-31T01:19:46;6.72;;;0.50;;
69744;SDS011;57015;50.120;-5.168;2023-10-31T01:22:11;3.03;;;0.40;;
69744;SDS011;57015;50.120;-5.168;2023-10-31T01:24:36;4.93;;;0.43;;
69744;SDS011;57015;50.120;-5.168;2023-10-31T01:27:02;5.27;;;0.30;;
69744;SDS011;57015;50.120;-5.168;2023-10-31T01:29:27;6.47;;;0.43;;
69744;SDS011;57015;50.120;-5.168;2023-10-31T01:31:53;2.60;;;0.50;;
69744;SDS011;57015;50.120;-5.168;2023-10-31T01:34:18;3.17;;;0.33;;
69744;SDS011;57015;50.120;-5.168;2023-10-31T01:36:43;3.80;;;1.43;;
69744;SDS011;57015;50.120;-5.168;2023-10-31T01:39:09;9.87;;;0.77;;
69744;SDS011;57015;50.120;-5.168;2023-10-31T01:41:35;4.15;;;0.20;;
69744;SDS011;57015;50.120;-5.168;2023-10-31T01:44:00;5.45;;;0.50;;
69744;SDS011;57015;50.120;-5.168;2023-10-31T01:46:26;7.32;;;0.68;;
69744;SDS011;57015;50.120;-5.168;2023-10-31T01:48:51;6.53;;;1.07;;
69744;SDS011;57015;50.120;-5.168;2023-10-31T01:51:17;5.88;;;0.40;;
69744;SDS011;57015;50.120;-5.168;2023-10-31T01:53:42;6.38;;;0.50;;
69744;SDS011;57015;50.120;-5.168;2023-10-31T01:56:08;7.97;;;1.00;;
69744;SDS011;57015;50.120;-5.168;2023-10-31T01:58:37;6.33;;;0.50;;
69744;SDS011;57015;50.120;-5.168;2023-10-31T02:01:03;7.20;;;0.70;;
69744;SDS011;57015;50.120;-5.168;2023-10-31T02:03:29;7.88;;;1.60;;
69744;SDS011;57015;50.120;-5.168;2023-10-31T02:05:55;6.60;;;0.68;;
69744;SDS011;57015;50.120;-5.168;2023-10-31T02:08:21;9.73;;;0.87;;
69744;SDS011;57015;50.120;-5.168;2023-10-31T02:10:47;8.93;;;0.70;;
69744;SDS011;57015;50.120;-5.168;2023-10-31T02:13:13;7.70;;;0.83;;
69744;SDS011;57015;50.120;-5.168;2023-10-31T02:15:39;10.20;;;1.13;;
69744;SDS011;57015;50.120;-5.168;2023-10-31T02:18:05;6.40;;;0.87;;
69744;SDS011;57015;50.120;-5.168;2023-10-31T02:20:31;7.65;;;0.80;;
69744;SDS011;57015;50.120;-5.168;2023-10-31T02:22:56;9.35;;;0.82;;
69744;SDS011;57015;50.120;-5.168;2023-10-31T02:25:21;5.50;;;0.57;;
69744;SDS011;57015;50.120;-5.168;2023-10-31T02:27:47;6.27;;;0.60;;
69744;SDS011;57015;50.120;-5.168;2023-10-31T02:30:12;6.17;;;0.77;;
69744;SDS011;57015;50.120;-5.168;2023-10-31T02:32:38;3.40;;;1.33;;
69744;SDS011;57015;50.120;-5.168;2023-10-31T02:35:03;6.80;;;0.65;;
69744;SDS011;57015;50.120;-5.168;2023-10-31T02:37:29;9.60;;;0.77;;
69744;SDS011;57015;50.120;-5.168;2023-10-31T02:39:54;7.80;;;0.70;;
69744;SDS011;57015;50.120;-5.168;2023-10-31T02:42:19;7.70;;;0.73;;
69744;SDS011;57015;50.120;-5.168;2023-10-31T02:44:45;6.47;;;0.77;;
69744;SDS011;57015;50.120;-5.168;2023-10-31T02:47:10;8.80;;;1.23;;
69744;SDS011;57015;50.120;-5.168;2023-10-31T02:49:35;6.50;;;0.70;;
69744;SDS011;57015;50.120;-5.168;2023-10-31T02:52:01;9.03;;;1.07;;
69744;SDS011;57015;50.120;-5.168;2023-10-31T02:54:26;4.80;;;0.63;;
69744;SDS011;57015;50.120;-5.168;2023-10-31T02:56:52;5.23;;;0.83;;
69744;SDS011;57015;50.120;-5.168;2023-10-31T02:59:17;4.10;;;0.63;;
69744;SDS011;57015;50.120;-5.168;2023-10-31T03:01:42;5.60;;;0.63;;
69744;SDS011;57015;50.120;-5.168;2023-10-31T03:04:08;5.57;;;0.65;;
69744;SDS011;57015;50.120;-5.168;2023-10-31T03:06:33;4.45;;;0.90;;
69744;SDS011;57015;50.120;-5.168;2023-10-31T03:08:58;10.53;;;0.83;;
69744;SDS011;57015;50.120;-5.168;2023-10-31T03:11:24;4.40;;;0.80;;
69744;SDS011;57015;50.120;-5.168;2023-10-31T03:13:50;8.90;;;1.75;;
69744;SDS011;57015;50.120;-5.168;2023-10-31T03:16:16;3.87;;;0.40;;
69744;SDS011;57015;50.120;-5.168;2023-10-31T03:18:42;8.55;;;1.08;;
69744;SDS011;57015;50.120;-5.168;2023-10-31T03:21:07;5.43;;;0.63;;
69744;SDS011;57015;50.120;-5.168;2023-10-31T03:23:33;9.03;;;0.67;;
69744;SDS011;57015;50.120;-5.168;2023-10-31T03:25:58;4.95;;;0.73;;
69744;SDS011;57015;50.120;-5.168;2023-10-31T03:28:23;7.00;;;0.80;;
69744;SDS011;57015;50.120;-5.168;2023-10-31T03:30:49;10.57;;;1.30;;
69744;SDS011;57015;50.120;-5.168;2023-10-31T03:33:15;5.90;;;0.93;;
69744;SDS011;57015;50.120;-5.168;2023-10-31T03:35:44;7.28;;;0.70;;
69744;SDS011;57015;50.120;-5.168;2023-10-31T03:38:09;6.05;;;0.75;;
69744;SDS011;57015;50.120;-5.168;2023-10-31T03:40:35;6.23;;;0.70;;
69744;SDS011;57015;50.120;-5.168;2023-10-31T03:43:00;5.63;;;0.67;;
69744;SDS011;57015;50.120;-5.168;2023-10-31T03:45:26;11.47;;;0.90;;
69744;SDS011;57015;50.120;-5.168;2023-10-31T03:47:51;4.53;;;0.45;;
69744;SDS011;57015;50.120;-5.168;2023-10-31T03:50:16;3.13;;;0.40;;
69744;SDS011;57015;50.120;-5.168;2023-10-31T03:52:42;5.90;;;0.77;;
69744;SDS011;57015;50.120;-5.168;2023-10-31T03:55:08;5.43;;;0.60;;
69744;SDS011;57015;50.120;-5.168;2023-10-31T03:57:33;3.58;;;0.77;;
69744;SDS011;57015;50.120;-5.168;2023-10-31T03:59:59;9.20;;;0.67;;
69744;SDS011;57015;50.120;-5.168;2023-10-31T04:02:25;5.13;;;0.50;;
69744;SDS011;57015;50.120;-5.168;2023-10-31T04:04:50;7.43;;;1.23;;
69744;SDS011;57015;50.120;-5.168;2023-10-31T04:07:15;4.77;;;0.37;;
69744;SDS011;57015;50.120;-5.168;2023-10-31T04:09:41;6.83;;;0.57;;
69744;SDS011;57015;50.120;-5.168;2023-10-31T04:12:06;5.83;;;0.60;;
69744;SDS011;57015;50.120;-5.168;2023-10-31T04:14:32;4.68;;;1.33;;
69744;SDS011;57015;50.120;-5.168;2023-10-31T04:16:57;3.55;;;0.73;;
69744;SDS011;57015;50.120;-5.168;2023-10-31T04:19:22;10.60;;;1.10;;
69744;SDS011;57015;50.120;-5.168;2023-10-31T04:21:48;8.40;;;1.70;;
69744;SDS011;57015;50.120;-5.168;2023-10-31T04:24:13;3.80;;;0.70;;
69744;SDS011;57015;50.120;-5.168;2023-10-31T04:26:40;5.20;;;0.80;;
69744;SDS011;57015;50.120;-5.168;2023-10-31T04:29:05;7.28;;;0.47;;
69744;SDS011;57015;50.120;-5.168;2023-10-31T04:31:31;7.77;;;1.40;;
69744;SDS011;57015;50.120;-5.168;2023-10-31T04:33:56;6.17;;;0.80;;
69744;SDS011;57015;50.120;-5.168;2023-10-31T04:36:21;10.40;;;1.00;;
69744;SDS011;57015;50.120;-5.168;2023-10-31T04:38:47;6.43;;;0.63;;
69744;SDS011;57015;50.120;-5.168;2023-10-31T04:41:12;2.97;;;0.83;;
69744;SDS011;57015;50.120;-5.168;2023-10-31T04:43:38;11.98;;;1.05;;
69744;SDS011;57015;50.120;-5.168;2023-10-31T04:46:06;6.90;;;0.97;;
69744;SDS011;57015;50.120;-5.168;2023-10-31T04:48:32;3.47;;;0.85;;
69744;SDS011;57015;50.120;-5.168;2023-10-31T04:50:57;8.00;;;1.07;;
69744;SDS011;57015;50.120;-5.168;2023-10-31T04:53:23;9.73;;;0.85;;
69744;SDS011;57015;50.120;-5.168;2023-10-31T04:55:48;12.70;;;1.80;;
69744;SDS011;57015;50.120;-5.168;2023-10-31T04:58:14;9.13;;;1.17;;
69744;SDS011;57015;50.120;-5.168;2023-10-31T05:00:39;10.03;;;1.77;;
69744;SDS011;57015;50.120;-5.168;2023-10-31T05:03:05;10.60;;;1.80;;
69744;SDS011;57015;50.120;-5.168;2023-10-31T05:05:31;10.77;;;1.03;;
69744;SDS011;57015;50.120;-5.168;2023-10-31T05:07:57;14.70;;;1.42;;
69744;SDS011;57015;50.120;-5.168;2023-10-31T05:10:23;6.67;;;1.00;;
69744;SDS011;57015;50.120;-5.168;2023-10-31T05:12:49;13.07;;;1.45;;
69744;SDS011;57015;50.120;-5.168;2023-10-31T05:15:15;9.70;;;0.90;;
69744;SDS011;57015;50.120;-5.168;2023-10-31T05:17:41;12.37;;;1.40;;
69744;SDS011;57015;50.120;-5.168;2023-10-31T05:20:06;14.03;;;1.87;;
69744;SDS011;57015;50.120;-5.168;2023-10-31T05:22:33;9.30;;;1.40;;
69744;SDS011;57015;50.120;-5.168;2023-10-31T05:24:59;10.77;;;1.70;;
69744;SDS011;57015;50.120;-5.168;2023-10-31T05:27:24;9.15;;;1.73;;
69744;SDS011;57015;50.120;-5.168;2023-10-31T05:29:49;27.03;;;3.03;;
69744;SDS011;57015;50.120;-5.168;2023-10-31T05:32:15;6.47;;;1.00;;
69744;SDS011;57015;50.120;-5.168;2023-10-31T05:34:40;10.17;;;0.97;;
69744;SDS011;57015;50.120;-5.168;2023-10-31T05:37:07;9.43;;;0.83;;
69744;SDS011;57015;50.120;-5.168;2023-10-31T05:39:33;6.75;;;0.98;;
69744;SDS011;57015;50.120;-5.168;2023-10-31T05:41:58;8.27;;;1.77;;
69744;SDS011;57015;50.120;-5.168;2023-10-31T05:44:23;8.80;;;1.07;;
69744;SDS011;57015;50.120;-5.168;2023-10-31T05:46:49;7.60;;;1.07;;
69744;SDS011;57015;50.120;-5.168;2023-10-31T05:49:14;8.27;;;0.70;;
69744;SDS011;57015;50.120;-5.168;2023-10-31T05:51:40;6.83;;;0.67;;
69744;SDS011;57015;50.120;-5.168;2023-10-31T05:54:06;10.37;;;1.00;;
69744;SDS011;57015;50.120;-5.168;2023-10-31T05:56:32;6.55;;;1.30;;
69744;SDS011;57015;50.120;-5.168;2023-10-31T05:58:58;8.67;;;1.57;;
69744;SDS011;57015;50.120;-5.168;2023-10-31T06:01:23;11.97;;;1.57;;
69744;SDS011;57015;50.120;-5.168;2023-10-31T06:03:48;9.50;;;0.97;;
69744;SDS011;57015;50.120;-5.168;2023-10-31T06:06:14;9.60;;;0.70;;
69744;SDS011;57015;50.120;-5.168;2023-10-31T06:08:40;9.57;;;1.63;;
69744;SDS011;57015;50.120;-5.168;2023-10-31T06:11:06;10.48;;;1.73;;
69744;SDS011;57015;50.120;-5.168;2023-10-31T06:13:32;9.23;;;1.10;;
69744;SDS011;57015;50.120;-5.168;2023-10-31T06:15:59;10.07;;;1.48;;
69744;SDS011;57015;50.120;-5.168;2023-10-31T06:18:25;9.77;;;1.00;;
69744;SDS011;57015;50.120;-5.168;2023-10-31T06:20:51;16.08;;;1.75;;
69744;SDS011;57015;50.120;-5.168;2023-10-31T06:23:17;9.70;;;1.10;;
69744;SDS011;57015;50.120;-5.168;2023-10-31T06:25:43;9.97;;;1.70;;
69744;SDS011;57015;50.120;-5.168;2023-10-31T06:28:08;13.63;;;1.10;;
69744;SDS011;57015;50.120;-5.168;2023-10-31T06:30:33;8.07;;;1.13;;
69744;SDS011;57015;50.120;-5.168;2023-10-31T06:32:59;15.37;;;1.37;;
69744;SDS011;57015;50.120;-5.168;2023-10-31T06:35:25;13.93;;;1.33;;
69744;SDS011;57015;50.120;-5.168;2023-10-31T06:37:51;8.50;;;0.90;;
69744;SDS011;57015;50.120;-5.168;2023-10-31T06:40:19;19.45;;;1.38;;
69744;SDS011;57015;50.120;-5.168;2023-10-31T06:42:44;8.93;;;0.87;;
69744;SDS011;57015;50.120;-5.168;2023-10-31T06:45:09;10.50;;;1.47;;
69744;SDS011;57015;50.120;-5.168;2023-10-31T06:47:35;6.20;;;1.20;;
69744;SDS011;57015;50.120;-5.168;2023-10-31T06:50:00;10.67;;;1.40;;
69744;SDS011;57015;50.120;-5.168;2023-10-31T06:52:26;12.70;;;1.03;;
69744;SDS011;57015;50.120;-5.168;2023-10-31T06:54:51;10.93;;;1.70;;
69744;SDS011;57015;50.120;-5.168;2023-10-31T06:57:16;8.45;;;1.70;;
69744;SDS011;57015;50.120;-5.168;2023-10-31T06:59:42;13.35;;;1.42;;
69744;SDS011;57015;50.120;-5.168;2023-10-31T07:02:07;7.97;;;1.07;;
69744;SDS011;57015;50.120;-5.168;2023-10-31T07:04:33;10.43;;;1.13;;
69744;SDS011;57015;50.120;-5.168;2023-10-31T07:06:59;8.43;;;1.30;;
69744;SDS011;57015;50.120;-5.168;2023-10-31T07:09:25;9.27;;;1.23;;
69744;SDS011;57015;50.120;-5.168;2023-10-31T07:11:50;7.05;;;1.13;;
69744;SDS011;57015;50.120;-5.168;2023-10-31T07:14:16;13.00;;;1.20;;
69744;SDS011;57015;50.120;-5.168;2023-10-31T07:16:42;8.40;;;0.98;;
69744;SDS011;57015;50.120;-5.168;2023-10-31T07:19:09;9.65;;;0.95;;
69744;SDS011;57015;50.120;-5.168;2023-10-31T07:21:34;8.00;;;0.70;;
69744;SDS011;57015;50.120;-5.168;2023-10-31T07:24:00;9.50;;;1.13;;
69744;SDS011;57015;50.120;-5.168;2023-10-31T07:26:25;15.10;;;1.40;;
69744;SDS011;57015;50.120;-5.168;2023-10-31T07:28:52;11.90;;;1.23;;
69744;SDS011;57015;50.120;-5.168;2023-10-31T07:31:17;12.55;;;1.05;;
69744;SDS011;57015;50.120;-5.168;2023-10-31T07:33:46;8.10;;;1.10;;
69744;SDS011;57015;50.120;-5.168;2023-10-31T07:36:11;6.30;;;1.00;;
69744;SDS011;57015;50.120;-5.168;2023-10-31T07:38:37;7.37;;;1.20;;
69744;SDS011;57015;50.120;-5.168;2023-10-31T07:41:02;9.90;;;1.10;;
69744;SDS011;57015;50.120;-5.168;2023-10-31T07:43:28;13.40;;;2.03;;
69744;SDS011;57015;50.120;-5.168;2023-10-31T07:45:53;9.82;;;0.80;;
69744;SDS011;57015;50.120;-5.168;2023-10-31T07:48:18;8.30;;;0.83;;
69744;SDS011;57015;50.120;-5.168;2023-10-31T07:50:44;9.93;;;1.33;;
69744;SDS011;57015;50.120;-5.168;2023-10-31T07:53:09;8.97;;;1.30;;
69744;SDS011;57015;50.120;-5.168;2023-10-31T07:55:34;10.63;;;1.20;;
69744;SDS011;57015;50.120;-5.168;2023-10-31T07:58:00;9.63;;;1.20;;
69744;SDS011;57015;50.120;-5.168;2023-10-31T08:00:25;9.80;;;0.80;;
69744;SDS011;57015;50.120;-5.168;2023-10-31T08:02:51;10.85;;;0.88;;
69744;SDS011;57015;50.120;-5.168;2023-10-31T08:05:16;13.17;;;1.60;;
69744;SDS011;57015;50.120;-5.168;2023-10-31T08:07:42;17.55;;;1.75;;
69744;SDS011;57015;50.120;-5.168;2023-10-31T08:10:07;12.48;;;1.35;;
69744;SDS011;57015;50.120;-5.168;2023-10-31T08:12:33;15.20;;;1.53;;
69744;SDS011;57015;50.120;-5.168;2023-10-31T08:14:58;12.33;;;1.00;;
69744;SDS011;57015;50.120;-5.168;2023-10-31T08:17:24;9.20;;;1.35;;
69744;SDS011;57015;50.120;-5.168;2023-10-31T08:19:50;18.67;;;1.47;;
69744;SDS011;57015;50.120;-5.168;2023-10-31T08:22:15;8.90;;;2.13;;
69744;SDS011;57015;50.120;-5.168;2023-10-31T08:24:41;20.05;;;1.60;;
69744;SDS011;57015;50.120;-5.168;2023-10-31T08:27:07;12.60;;;1.17;;
69744;SDS011;57015;50.120;-5.168;2023-10-31T08:29:32;10.75;;;1.80;;
69744;SDS011;57015;50.120;-5.168;2023-10-31T08:31:58;11.80;;;0.97;;
69744;SDS011;57015;50.120;-5.168;2023-10-31T08:34:23;13.20;;;1.07;;
69744;SDS011;57015;50.120;-5.168;2023-10-31T08:36:48;15.20;;;1.63;;
69744;SDS011;57015;50.120;-5.168;2023-10-31T08:39:14;10.43;;;0.90;;
69744;SDS011;57015;50.120;-5.168;2023-10-31T08:41:52;7.43;;;0.87;;
69744;SDS011;57015;50.120;-5.168;2023-10-31T08:44:18;10.20;;;0.85;;
69744;SDS011;57015;50.120;-5.168;2023-10-31T08:46:43;18.87;;;1.00;;
69744;SDS011;57015;50.120;-5.168;2023-10-31T08:49:08;13.60;;;1.70;;
69744;SDS011;57015;50.120;-5.168;2023-10-31T08:51:34;10.05;;;0.88;;
69744;SDS011;57015;50.120;-5.168;2023-10-31T08:53:59;13.10;;;1.33;;
69744;SDS011;57015;50.120;-5.168;2023-10-31T08:56:25;15.13;;;1.80;;
69744;SDS011;57015;50.120;-5.168;2023-10-31T08:58:52;11.55;;;1.10;;
69744;SDS011;57015;50.120;-5.168;2023-10-31T09:01:17;14.47;;;1.40;;
69744;SDS011;57015;50.120;-5.168;2023-10-31T09:03:43;15.57;;;1.50;;
69744;SDS011;57015;50.120;-5.168;2023-10-31T09:06:09;13.50;;;1.92;;
69744;SDS011;57015;50.120;-5.168;2023-10-31T09:08:35;24.50;;;2.23;;
69744;SDS011;57015;50.120;-5.168;2023-10-31T09:11:01;22.60;;;2.63;;
69744;SDS011;57015;50.120;-5.168;2023-10-31T09:13:28;18.60;;;2.92;;
69744;SDS011;57015;50.120;-5.168;2023-10-31T09:15:54;19.77;;;2.43;;
69744;SDS011;57015;50.120;-5.168;2023-10-31T09:18:19;15.47;;;2.17;;
69744;SDS011;57015;50.120;-5.168;2023-10-31T09:20:45;19.50;;;2.40;;
69744;SDS011;57015;50.120;-5.168;2023-10-31T09:23:10;17.92;;;1.80;;
69744;SDS011;57015;50.120;-5.168;2023-10-31T09:25:35;15.00;;;2.50;;
69744;SDS011;57015;50.120;-5.168;2023-10-31T09:28:01;13.17;;;1.93;;
69744;SDS011;57015;50.120;-5.168;2023-10-31T09:30:27;14.02;;;1.70;;
69744;SDS011;57015;50.120;-5.168;2023-10-31T09:32:52;19.27;;;2.23;;
69744;SDS011;57015;50.120;-5.168;2023-10-31T09:35:17;14.87;;;2.30;;
69744;SDS011;57015;50.120;-5.168;2023-10-31T09:37:43;16.07;;;2.13;;
69744;SDS011;57015;50.120;-5.168;2023-10-31T09:40:08;12.70;;;1.77;;
69744;SDS011;57015;50.120;-5.168;2023-10-31T09:42:35;15.88;;;2.42;;
69744;SDS011;57015;50.120;-5.168;2023-10-31T09:45:01;15.25;;;2.08;;
69744;SDS011;57015;50.120;-5.168;2023-10-31T09:47:26;15.33;;;2.27;;
69744;SDS011;57015;50.120;-5.168;2023-10-31T09:49:51;16.40;;;3.00;;
69744;SDS011;57015;50.120;-5.168;2023-10-31T09:52:17;11.20;;;1.48;;
69744;SDS011;57015;50.120;-5.168;2023-10-31T09:54:45;9.45;;;1.50;;
69744;SDS011;57015;50.120;-5.168;2023-10-31T09:57:13;14.53;;;1.43;;
69744;SDS011;57015;50.120;-5.168;2023-10-31T09:59:39;13.38;;;1.63;;
69744;SDS011;57015;50.120;-5.168;2023-10-31T10:02:04;14.07;;;1.38;;
69744;SDS011;57015;50.120;-5.168;2023-10-31T10:04:30;11.15;;;1.80;;
69744;SDS011;57015;50.120;-5.168;2023-10-31T10:06:59;13.93;;;1.40;;
69744;SDS011;57015;50.120;-5.168;2023-10-31T10:09:25;15.90;;;1.70;;
69744;SDS011;57015;50.120;-5.168;2023-10-31T10:11:52;10.73;;;1.50;;
69744;SDS011;57015;50.120;-5.168;2023-10-31T10:14:17;12.10;;;1.50;;
69744;SDS011;57015;50.120;-5.168;2023-10-31T10:16:43;11.00;;;1.50;;
69744;SDS011;57015;50.120;-5.168;2023-10-31T10:19:15;13.57;;;1.33;;
69744;SDS011;57015;50.120;-5.168;2023-10-31T10:21:48;10.00;;;1.27;;
69744;SDS011;57015;50.120;-5.168;2023-10-31T10:24:18;15.10;;;1.30;;
69744;SDS011;57015;50.120;-5.168;2023-10-31T10:26:44;10.27;;;1.30;;
69744;SDS011;57015;50.120;-5.168;2023-10-31T10:29:10;9.60;;;1.35;;
69744;SDS011;57015;50.120;-5.168;2023-10-31T10:31:35;13.70;;;1.87;;
69744;SDS011;57015;50.120;-5.168;2023-10-31T10:34:01;9.97;;;1.50;;
69744;SDS011;57015;50.120;-5.168;2023-10-31T10:36:29;14.52;;;1.40;;
69744;SDS011;57015;50.120;-5.168;2023-10-31T10:38:57;15.52;;;1.60;;
69744;SDS011;57015;50.120;-5.168;2023-10-31T10:41:26;14.27;;;1.47;;
69744;SDS011;57015;50.120;-5.168;2023-10-31T10:43:55;11.70;;;1.60;;
69744;SDS011;57015;50.120;-5.168;2023-10-31T10:46:21;11.70;;;1.57;;
69744;SDS011;57015;50.120;-5.168;2023-10-31T10:48:50;10.95;;;1.75;;
69744;SDS011;57015;50.120;-5.168;2023-10-31T10:51:25;14.48;;;1.80;;
69744;SDS011;57015;50.120;-5.168;2023-10-31T10:53:58;9.82;;;1.15;;
69744;SDS011;57015;50.120;-5.168;2023-10-31T10:56:37;9.80;;;1.50;;
69744;SDS011;57015;50.120;-5.168;2023-10-31T10:59:07;11.50;;;1.63;;
69744;SDS011;57015;50.120;-5.168;2023-10-31T11:01:34;9.43;;;0.70;;
69744;SDS011;57015;50.120;-5.168;2023-10-31T11:04:00;9.43;;;1.08;;
69744;SDS011;57015;50.120;-5.168;2023-10-31T11:06:27;13.50;;;1.45;;
69744;SDS011;57015;50.120;-5.168;2023-10-31T11:08:52;9.50;;;0.93;;
69744;SDS011;57015;50.120;-5.168;2023-10-31T11:11:18;8.30;;;0.77;;
69744;SDS011;57015;50.120;-5.168;2023-10-31T11:13:45;11.07;;;1.00;;
69744;SDS011;57015;50.120;-5.168;2023-10-31T11:16:13;7.33;;;0.97;;
69744;SDS011;57015;50.120;-5.168;2023-10-31T11:18:41;10.27;;;1.35;;
69744;SDS011;57015;50.120;-5.168;2023-10-31T11:21:06;6.43;;;1.23;;
69744;SDS011;57015;50.120;-5.168;2023-10-31T11:23:32;15.70;;;1.73;;
69744;SDS011;57015;50.120;-5.168;2023-10-31T11:25:57;13.40;;;1.30;;
69744;SDS011;57015;50.120;-5.168;2023-10-31T11:28:23;14.98;;;1.13;;
69744;SDS011;57015;50.120;-5.168;2023-10-31T11:30:49;16.77;;;1.50;;
69744;SDS011;57015;50.120;-5.168;2023-10-31T11:33:16;14.63;;;1.53;;
69744;SDS011;57015;50.120;-5.168;2023-10-31T11:35:44;19.02;;;1.67;;
69744;SDS011;57015;50.120;-5.168;2023-10-31T11:38:15;15.95;;;1.98;;
69744;SDS011;57015;50.120;-5.168;2023-10-31T11:40:57;16.17;;;2.03;;
69744;SDS011;57015;50.120;-5.168;2023-10-31T11:43:24;19.15;;;2.00;;
69744;SDS011;57015;50.120;-5.168;2023-10-31T11:45:50;16.93;;;1.90;;
69744;SDS011;57015;50.120;-5.168;2023-10-31T11:48:15;16.40;;;1.90;;
69744;SDS011;57015;50.120;-5.168;2023-10-31T11:50:41;11.53;;;1.93;;
69744;SDS011;57015;50.120;-5.168;2023-10-31T11:53:07;13.98;;;1.52;;
69744;SDS011;57015;50.120;-5.168;2023-10-31T11:55:39;19.73;;;2.03;;
69744;SDS011;57015;50.120;-5.168;2023-10-31T11:58:15;12.50;;;2.22;;
69744;SDS011;57015;50.120;-5.168;2023-10-31T12:00:45;15.02;;;1.88;;
69744;SDS011;57015;50.120;-5.168;2023-10-31T12:03:14;13.20;;;1.70;;
69744;SDS011;57015;50.120;-5.168;2023-10-31T12:05:50;15.35;;;1.55;;
69744;SDS011;57015;50.120;-5.168;2023-10-31T12:08:30;10.80;;;1.27;;
69744;SDS011;57015;50.120;-5.168;2023-10-31T12:11:04;10.55;;;1.13;;
69744;SDS011;57015;50.120;-5.168;2023-10-31T12:13:29;17.70;;;1.27;;
69744;SDS011;57015;50.120;-5.168;2023-10-31T12:15:55;12.43;;;1.40;;
69744;SDS011;57015;50.120;-5.168;2023-10-31T12:18:20;10.63;;;1.10;;
69744;SDS011;57015;50.120;-5.168;2023-10-31T12:20:49;11.93;;;1.23;;
69744;SDS011;57015;50.120;-5.168;2023-10-31T12:23:15;13.55;;;1.92;;
69744;SDS011;57015;50.120;-5.168;2023-10-31T12:25:47;10.07;;;1.10;;
69744;SDS011;57015;50.120;-5.168;2023-10-31T12:28:25;14.70;;;1.73;;
69744;SDS011;57015;50.120;-5.168;2023-10-31T12:30:52;16.37;;;1.53;;
69744;SDS011;57015;50.120;-5.168;2023-10-31T12:33:22;11.82;;;1.35;;
69744;SDS011;57015;50.120;-5.168;2023-10-31T12:35:52;11.32;;;1.38;;
69744;SDS011;57015;50.120;-5.168;2023-10-31T12:38:18;12.63;;;1.80;;
69744;SDS011;57015;50.120;-5.168;2023-10-31T12:40:44;14.60;;;3.60;;
69744;SDS011;57015;50.120;-5.168;2023-10-31T12:43:10;10.90;;;1.20;;
69744;SDS011;57015;50.120;-5.168;2023-10-31T12:45:35;10.43;;;1.03;;
69744;SDS011;57015;50.120;-5.168;2023-10-31T12:50:27;6.85;;;0.90;;
69744;SDS011;57015;50.120;-5.168;2023-10-31T12:52:53;8.63;;;0.98;;
69744;SDS011;57015;50.120;-5.168;2023-10-31T12:55:23;8.33;;;0.97;;
69744;SDS011;57015;50.120;-5.168;2023-10-31T12:57:50;7.95;;;0.85;;
69744;SDS011;57015;50.120;-5.168;2023-10-31T13:00:16;5.40;;;0.90;;
69744;SDS011;57015;50.120;-5.168;2023-10-31T13:02:50;9.23;;;1.20;;
69744;SDS011;57015;50.120;-5.168;2023-10-31T13:05:29;7.28;;;0.88;;
69744;SDS011;57015;50.120;-5.168;2023-10-31T13:07:55;6.97;;;0.90;;
69744;SDS011;57015;50.120;-5.168;2023-10-31T13:10:25;10.32;;;1.30;;
69744;SDS011;57015;50.120;-5.168;2023-10-31T13:12:51;8.20;;;0.90;;
69744;SDS011;57015;50.120;-5.168;2023-10-31T13:15:19;9.10;;;1.63;;
69744;SDS011;57015;50.120;-5.168;2023-10-31T13:17:45;9.68;;;1.23;;
69744;SDS011;57015;50.120;-5.168;2023-10-31T13:20:11;5.50;;;0.90;;
69744;SDS011;57015;50.120;-5.168;2023-10-31T13:22:38;6.03;;;0.35;;
69744;SDS011;57015;50.120;-5.168;2023-10-31T13:25:05;7.43;;;0.83;;
69744;SDS011;57015;50.120;-5.168;2023-10-31T13:27:32;7.60;;;1.10;;
69744;SDS011;57015;50.120;-5.168;2023-10-31T13:30:02;7.82;;;0.82;;
69744;SDS011;57015;50.120;-5.168;2023-10-31T13:32:28;8.60;;;1.58;;
69744;SDS011;57015;50.120;-5.168;2023-10-31T13:34:53;8.70;;;1.57;;
69744;SDS011;57015;50.120;-5.168;2023-10-31T13:37:19;5.50;;;0.83;;
69744;SDS011;57015;50.120;-5.168;2023-10-31T13:39:44;8.17;;;0.80;;
69744;SDS011;57015;50.120;-5.168;2023-10-31T13:42:10;6.60;;;0.40;;
69744;SDS011;57015;50.120;-5.168;2023-10-31T13:44:35;7.53;;;0.70;;
69744;SDS011;57015;50.120;-5.168;2023-10-31T13:47:01;1.90;;;0.22;;
69744;SDS011;57015;50.120;-5.168;2023-10-31T13:49:27;7.77;;;0.70;;
69744;SDS011;57015;50.120;-5.168;2023-10-31T13:51:53;6.50;;;0.63;;
69744;SDS011;57015;50.120;-5.168;2023-10-31T13:54:18;6.13;;;1.10;;
69744;SDS011;57015;50.120;-5.168;2023-10-31T13:56:44;4.00;;;0.55;;
69744;SDS011;57015;50.120;-5.168;2023-10-31T13:59:10;5.27;;;0.53;;
69744;SDS011;57015;50.120;-5.168;2023-10-31T14:01:36;4.85;;;0.60;;
69744;SDS011;57015;50.120;-5.168;2023-10-31T14:04:01;4.33;;;0.50;;
69744;SDS011;57015;50.120;-5.168;2023-10-31T14:06:27;6.20;;;0.50;;
69744;SDS011;57015;50.120;-5.168;2023-10-31T14:08:55;3.42;;;0.45;;
69744;SDS011;57015;50.120;-5.168;2023-10-31T14:11:21;3.03;;;0.40;;
69744;SDS011;57015;50.120;-5.168;2023-10-31T14:13:47;7.20;;;0.90;;
69744;SDS011;57015;50.120;-5.168;2023-10-31T14:16:12;4.03;;;0.40;;
69744;SDS011;57015;50.120;-5.168;2023-10-31T14:18:38;4.87;;;0.60;;
69744;SDS011;57015;50.120;-5.168;2023-10-31T14:21:04;8.35;;;0.75;;
69744;SDS011;57015;50.120;-5.168;2023-10-31T14:23:29;2.97;;;0.60;;
69744;SDS011;57015;50.120;-5.168;2023-10-31T14:25:55;5.15;;;0.75;;